Time;durP1;ratioP1;P1;durP2;ratioP2;P2;SDS_P1;SDS_P2;PMS_P1;PMS_P2;Temp;Humidity;BMP_temperature;BMP_pressure;BME280_temperature;BME280_humidity;BME280_pressure;Samples;Min_cycle;Max_cycle;Signal;HPM_P1;HPM_P2
2023/10/09 00:01:31;;;;;;;101.80;16.48;;;;;;;;;;5096003;27;20032;-37
2023/10/09 00:04:01;;;;;;;114.00;15.40;;;;;;;;;;5105356;28;20027;-36
2023/10/09 00:06:36;;;;;;;108.18;16.65;;;;;;;;;;5087838;28;20040;-38
2023/10/09 00:11:48;;;;;;;124.97;18.70;;;;;;;;;;5108513;28;20063;-36
2023/10/09 00:14:18;;;;;;;99.38;16.35;;;;;;;;;;5108800;28;20031;-35
2023/10/09 00:16:49;;;;;;;108.25;18.42;;;;;;;;;;5107512;28;20078;-33
2023/10/09 00:19:20;;;;;;;95.90;17.63;;;;;;;;;;5107928;28;20034;-35
2023/10/09 00:21:54;;;;;;;103.57;17.13;;;;;;;;;;5108870;28;20048;-37
2023/10/09 00:24:23;;;;;;;88.43;16.25;;;;;;;;;;5109826;28;20381;-40
2023/10/09 00:27:12;;;;;;;107.72;19.48;;;;;;;;;;5109420;28;20110;-34
2023/10/09 00:29:46;;;;;;;93.22;17.88;;;;;;;;;;5106414;28;20505;-34
2023/10/09 00:32:22;;;;;;;95.60;16.98;;;;;;;;;;5102960;28;20028;-36
2023/10/09 00:34:53;;;;;;;114.95;20.25;;;;;;;;;;5105785;28;20036;-34
2023/10/09 00:37:25;;;;;;;108.90;21.17;;;;;;;;;;5103338;28;20059;-37
2023/10/09 00:39:58;;;;;;;;;;;;;;;;;;5085297;28;20478;-34
2023/10/09 00:42:29;;;;;;;94.85;20.30;;;;;;;;;;5112612;27;19903;-37
2023/10/09 00:45:03;;;;;;;113.03;20.60;;;;;;;;;;5104766;28;20035;-35
2023/10/09 00:47:40;;;;;;;99.93;20.85;;;;;;;;;;5082482;28;20127;-35
2023/10/09 00:50:21;;;;;;;91.82;20.13;;;;;;;;;;5109028;28;20012;-34
2023/10/09 00:53:01;;;;;;;111.90;20.70;;;;;;;;;;5105611;28;20028;-33
2023/10/09 00:55:38;;;;;;;87.82;20.50;;;;;;;;;;5105675;28;20106;-35
2023/10/09 00:58:12;;;;;;;100.13;21.02;;;;;;;;;;5106297;28;20038;-34
2023/10/09 01:00:46;;;;;;;82.80;19.02;;;;;;;;;;5107223;28;20504;-37
2023/10/09 01:11:10;;;;;;;85.03;19.65;;;;;;;;;;5095187;28;20047;-37
2023/10/09 01:16:22;;;;;;;97.40;20.65;;;;;;;;;;5099529;28;20097;-34
2023/10/09 01:18:50;;;;;;;80.47;19.52;;;;;;;;;;5111097;28;20032;-37
2023/10/09 01:21:18;;;;;;;97.18;19.67;;;;;;;;;;5097747;28;20053;-34
2023/10/09 01:24:04;;;;;;;96.93;19.52;;;;;;;;;;5098094;28;20031;-34
2023/10/09 01:26:34;;;;;;;87.72;18.50;;;;;;;;;;5094342;28;20040;-34
2023/10/09 01:29:03;;;;;;;86.88;18.40;;;;;;;;;;5091380;28;20031;-34
2023/10/09 01:31:33;;;;;;;81.97;16.65;;;;;;;;;;5106974;28;20028;-33
2023/10/09 01:34:00;;;;;;;83.68;18.10;;;;;;;;;;5112273;28;20461;-37
2023/10/09 01:36:34;;;;;;;78.72;17.10;;;;;;;;;;5104051;28;20055;-37
2023/10/09 01:41:47;;;;;;;75.10;17.25;;;;;;;;;;5107165;28;20134;-34
2023/10/09 01:44:16;;;;;;;70.85;16.20;;;;;;;;;;5114542;28;20035;-33
2023/10/09 01:46:46;;;;;;;78.95;16.45;;;;;;;;;;5112229;28;20425;-37
2023/10/09 01:49:21;;;;;;;73.10;16.40;;;;;;;;;;5094886;28;20115;-37
2023/10/09 01:51:50;;;;;;;76.32;17.20;;;;;;;;;;5102219;28;20118;-34
2023/10/09 01:54:33;;;;;;;80.93;16.20;;;;;;;;;;5114835;28;20034;-37
2023/10/09 01:57:05;;;;;;;67.93;15.30;;;;;;;;;;5110372;28;20039;-37
2023/10/09 01:59:38;;;;;;;69.70;15.63;;;;;;;;;;5097753;28;20559;-34
2023/10/09 02:02:31;;;;;;;67.85;14.55;;;;;;;;;;5108782;28;20028;-36
2023/10/09 02:04:54;;;;;;;60.40;13.43;;;;;;;;;;5104548;28;20044;-37
2023/10/09 02:07:28;;;;;;;70.13;14.10;;;;;;;;;;5113495;28;20039;-38
2023/10/09 02:09:56;;;;;;;72.57;14.75;;;;;;;;;;5108321;28;20042;-37
2023/10/09 02:12:23;;;;;;;64.82;14.52;;;;;;;;;;5103983;28;20386;-34
2023/10/09 02:14:55;;;;;;;56.83;13.25;;;;;;;;;;5104807;28;20043;-34
2023/10/09 02:17:28;;;;;;;65.20;13.60;;;;;;;;;;5113192;28;20035;-34
2023/10/09 02:19:57;;;;;;;65.95;12.95;;;;;;;;;;5094834;28;20092;-37
2023/10/09 02:22:26;;;;;;;50.28;13.23;;;;;;;;;;5113653;28;20507;-35
2023/10/09 02:25:00;;;;;;;52.90;12.38;;;;;;;;;;5114251;28;20035;-34
2023/10/09 02:30:27;;;;;;;54.03;13.07;;;;;;;;;;5098872;28;20070;-37
2023/10/09 02:33:06;;;;;;;59.83;12.68;;;;;;;;;;5114686;28;20483;-37
2023/10/09 02:35:38;;;;;;;58.00;12.25;;;;;;;;;;5108135;28;20027;-37
2023/10/09 02:38:10;;;;;;;63.58;12.82;;;;;;;;;;5102626;28;20028;-35
2023/10/09 02:41:20;;;;;;;56.08;11.60;;;;;;;;;;5102694;28;20047;-37
2023/10/09 02:43:44;;;;;;;55.25;12.68;;;;;;;;;;5098702;28;20064;-37
2023/10/09 02:46:21;;;;;;;58.13;11.77;;;;;;;;;;5094366;28;20032;-37
2023/10/09 02:48:52;;;;;;;49.55;11.40;;;;;;;;;;5094015;28;20393;-37
2023/10/09 02:53:57;;;;;;;47.28;10.48;;;;;;;;;;5094328;28;20554;-37
2023/10/09 02:56:36;;;;;;;44.13;11.45;;;;;;;;;;5093701;28;20486;-37
2023/10/09 02:59:05;;;;;;;49.45;12.38;;;;;;;;;;5093739;28;20107;-37
2023/10/09 03:01:34;;;;;;;50.47;11.55;;;;;;;;;;5093668;28;20036;-37
2023/10/09 03:04:05;;;;;;;42.65;10.48;;;;;;;;;;5093460;28;20135;-37
2023/10/09 03:06:34;;;;;;;52.25;11.80;;;;;;;;;;5093664;28;20111;-37
2023/10/09 03:09:16;;;;;;;51.58;11.43;;;;;;;;;;5093538;28;20478;-37
2023/10/09 03:12:00;;;;;;;48.93;10.40;;;;;;;;;;5093643;28;20063;-37
2023/10/09 03:14:28;;;;;;;63.67;13.15;;;;;;;;;;5075443;28;20490;-37
2023/10/09 03:17:01;;;;;;;54.97;12.02;;;;;;;;;;5093688;28;20032;-37
2023/10/09 03:19:29;;;;;;;67.20;12.88;;;;;;;;;;5093248;28;20432;-37
2023/10/09 03:22:00;;;;;;;53.53;11.05;;;;;;;;;;5093365;28;20052;-37
2023/10/09 03:24:35;;;;;;;47.03;11.75;;;;;;;;;;5093298;28;20111;-37
2023/10/09 03:27:02;;;;;;;50.10;11.93;;;;;;;;;;5093305;28;20038;-37
2023/10/09 03:29:29;;;;;;;53.95;11.40;;;;;;;;;;5093081;28;20032;-37
2023/10/09 03:31:56;;;;;;;46.40;11.07;;;;;;;;;;5093272;28;20043;-37
2023/10/09 03:34:24;;;;;;;50.20;11.25;;;;;;;;;;5093200;28;20023;-37
2023/10/09 03:37:03;;;;;;;50.97;12.05;;;;;;;;;;5075171;28;20386;-37
2023/10/09 03:39:42;;;;;;;47.40;10.43;;;;;;;;;;5092932;28;20429;-37
2023/10/09 03:42:19;;;;;;;40.42;11.00;;;;;;;;;;5093174;28;20028;-37
2023/10/09 03:44:53;;;;;;;42.33;10.43;;;;;;;;;;5092982;28;20013;-37
2023/10/09 03:47:24;;;;;;;48.15;10.65;;;;;;;;;;5092888;28;20035;-39
2023/10/09 03:49:52;;;;;;;40.65;9.88;;;;;;;;;;5092938;28;20367;-37
2023/10/09 03:52:20;;;;;;;36.90;10.13;;;;;;;;;;5092750;28;20034;-37
2023/10/09 03:54:47;;;;;;;32.10;9.52;;;;;;;;;;5092084;28;20048;-37
2023/10/09 03:57:19;;;;;;;30.65;9.45;;;;;;;;;;5092725;28;20478;-37
2023/10/09 03:59:51;;;;;;;33.65;9.00;;;;;;;;;;5092454;28;20032;-37
2023/10/09 04:02:18;;;;;;;;;;;;;;;;;;5093097;28;20055;-37
2023/10/09 04:04:46;;;;;;;34.75;9.70;;;;;;;;;;5092504;28;20330;-37
2023/10/09 04:07:17;;;;;;;28.88;8.82;;;;;;;;;;5097612;28;20385;-34
2023/10/09 04:10:23;;;;;;;38.25;9.43;;;;;;;;;;5102408;28;20028;-37
2023/10/09 04:12:39;;;;;;;36.67;9.43;;;;;;;;;;5101247;28;20077;-37
2023/10/09 04:15:14;;;;;;;39.03;9.45;;;;;;;;;;5102786;28;20381;-34
2023/10/09 04:17:43;;;;;;;41.20;9.57;;;;;;;;;;5102999;28;20043;-34
2023/10/09 04:22:59;;;;;;;35.70;9.45;;;;;;;;;;5092352;28;20028;-34
2023/10/09 04:25:28;;;;;;;32.60;8.13;;;;;;;;;;5092534;28;20549;-34
2023/10/09 04:30:53;;;;;;;31.92;8.50;;;;;;;;;;5092469;28;20143;-34
2023/10/09 04:41:52;;;;;;;29.85;7.45;;;;;;;;;;5092259;28;20032;-34
2023/10/09 04:44:22;;;;;;;30.58;8.55;;;;;;;;;;5091963;28;20036;-34
2023/10/09 05:02:57;;;;;;;26.90;6.70;;;;;;;;;;5092064;28;20024;-34
2023/10/09 05:08:45;;;;;;;26.67;6.90;;;;;;;;;;5091703;28;20048;-34
2023/10/09 05:16:29;;;;;;;19.38;6.07;;;;;;;;;;5112294;28;20027;-34
2023/10/09 05:18:59;;;;;;;19.67;6.10;;;;;;;;;;5111141;28;20055;-34
2023/10/09 05:21:47;;;;;;;17.30;6.22;;;;;;;;;;5111533;28;20055;-35
2023/10/09 05:29:34;;;;;;;22.08;5.72;;;;;;;;;;5112098;28;20487;-34
2023/10/09 05:32:15;;;;;;;22.33;6.82;;;;;;;;;;5111791;28;20088;-35
2023/10/09 05:37:43;;;;;;;23.90;6.32;;;;;;;;;;5112093;28;20032;-34
2023/10/09 05:42:43;;;;;;;19.17;5.70;;;;;;;;;;5112008;28;20031;-35
2023/10/09 05:48:33;;;;;;;14.85;5.30;;;;;;;;;;5112020;28;20023;-34
2023/10/09 06:04:18;;;;;;;13.32;4.75;;;;;;;;;;5111787;28;20063;-36
2023/10/09 06:06:46;;;;;;;14.38;4.88;;;;;;;;;;5111477;28;20451;-37
2023/10/09 06:11:49;;;;;;;23.48;5.95;;;;;;;;;;5111496;28;20472;-36
2023/10/09 06:19:42;;;;;;;16.45;5.57;;;;;;;;;;5115688;28;20016;-37
2023/10/09 06:24:57;;;;;;;16.75;5.07;;;;;;;;;;5115324;28;20035;-36
2023/10/09 06:34:07;;;;;;;14.82;5.13;;;;;;;;;;5114913;28;20512;-36
2023/10/09 06:35:39;;;;;;;16.73;5.20;;;;;;;;;;5097070;28;20635;-36
2023/10/09 06:38:22;;;;;;;13.20;4.88;;;;;;;;;;5114697;28;20035;-36
2023/10/09 06:43:43;;;;;;;15.57;4.60;;;;;;;;;;5115017;28;20050;-36
2023/10/09 06:48:59;;;;;;;9.30;3.55;;;;;;;;;;5114854;28;20535;-36
2023/10/09 06:59:21;;;;;;;11.00;3.75;;;;;;;;;;5114313;28;20106;-37
2023/10/09 07:02:11;;;;;;;16.42;4.32;;;;;;;;;;5114099;28;20077;-36
2023/10/09 07:07:07;;;;;;;10.70;3.60;;;;;;;;;;5114146;28;20046;-37
2023/10/09 07:10:28;;;;;;;10.27;4.05;;;;;;;;;;5114233;28;20496;-36
2023/10/09 07:12:32;;;;;;;10.82;4.22;;;;;;;;;;5113892;28;20386;-36
2023/10/09 07:16:23;;;;;;;11.18;3.55;;;;;;;;;;5114020;28;20020;-36
2023/10/09 07:17:52;;;;;;;12.35;3.80;;;;;;;;;;5111217;28;20112;-36
2023/10/09 07:20:37;;;;;;;9.38;3.53;;;;;;;;;;5113473;28;20055;-36
2023/10/09 07:23:14;;;;;;;12.32;3.97;;;;;;;;;;5113947;28;20030;-36
2023/10/09 07:25:42;;;;;;;11.43;3.45;;;;;;;;;;5113902;28;20031;-36
2023/10/09 07:28:18;;;;;;;10.07;3.45;;;;;;;;;;5095428;28;20047;-36
2023/10/09 07:30:48;;;;;;;13.27;3.83;;;;;;;;;;5113771;28;20056;-37
2023/10/09 07:33:31;;;;;;;10.48;3.30;;;;;;;;;;5101553;28;20554;-33
2023/10/09 07:36:07;;;;;;;9.13;3.20;;;;;;;;;;5093208;28;20386;-34
2023/10/09 07:38:37;;;;;;;7.75;2.90;;;;;;;;;;5093148;28;20058;-33
2023/10/09 07:43:39;;;;;;;8.88;3.40;;;;;;;;;;5093201;28;20167;-33
2023/10/09 07:48:48;;;;;;;9.45;3.28;;;;;;;;;;5092981;28;20393;-33
2023/10/09 07:51:22;;;;;;;8.15;3.03;;;;;;;;;;5092916;28;20028;-34
2023/10/09 07:53:57;;;;;;;8.65;2.92;;;;;;;;;;5092901;28;20028;-33
2023/10/09 07:56:30;;;;;;;10.70;3.00;;;;;;;;;;5092763;28;20066;-34
2023/10/09 07:59:00;;;;;;;9.43;2.97;;;;;;;;;;5092713;28;20031;-33
2023/10/09 08:01:36;;;;;;;10.20;3.20;;;;;;;;;;5092605;28;20047;-33
2023/10/09 08:04:12;;;;;;;12.35;3.33;;;;;;;;;;5092621;28;20085;-36
2023/10/09 08:06:39;;;;;;;9.70;2.90;;;;;;;;;;5092711;28;20028;-36
2023/10/09 08:14:41;;;;;;;7.75;2.90;;;;;;;;;;5092518;28;20016;-36
2023/10/09 08:17:15;;;;;;;11.10;3.40;;;;;;;;;;5092341;28;20032;-36
2023/10/09 08:19:54;;;;;;;6.07;2.53;;;;;;;;;;5091622;28;20031;-36
2023/10/09 08:22:42;;;;;;;8.07;3.08;;;;;;;;;;5092445;28;20119;-37
2023/10/09 08:25:26;;;;;;;12.35;3.10;;;;;;;;;;5092239;28;20050;-37
2023/10/09 08:28:39;;;;;;;9.52;3.53;;;;;;;;;;5092266;28;20042;-37
2023/10/09 08:31:02;;;;;;;8.48;2.75;;;;;;;;;;5083835;28;20101;-36
2023/10/09 08:33:43;;;;;;;5.68;2.67;;;;;;;;;;5092107;28;20028;-36
2023/10/09 08:36:14;;;;;;;7.25;2.72;;;;;;;;;;5092133;28;20032;-36
2023/10/09 08:38:41;;;;;;;8.32;2.90;;;;;;;;;;5091949;28;20034;-36
2023/10/09 08:41:17;;;;;;;9.57;2.58;;;;;;;;;;5091664;28;20027;-36
2023/10/09 08:43:51;;;;;;;8.25;2.80;;;;;;;;;;5091865;28;20024;-36
2023/10/09 08:46:36;;;;;;;10.20;3.13;;;;;;;;;;5092112;28;20390;-36
2023/10/09 08:49:05;;;;;;;8.23;2.83;;;;;;;;;;5091937;28;20012;-36
2023/10/09 08:51:35;;;;;;;5.28;2.28;;;;;;;;;;5091863;28;20061;-36
2023/10/09 08:54:02;;;;;;;6.93;2.92;;;;;;;;;;5091774;28;20028;-36
2023/10/09 08:56:29;;;;;;;7.47;2.40;;;;;;;;;;5091834;28;20436;-36
2023/10/09 08:59:01;;;;;;;8.02;2.65;;;;;;;;;;5091914;28;20446;-36
2023/10/09 09:01:31;;;;;;;6.63;2.35;;;;;;;;;;5091706;28;20408;-36
2023/10/09 09:04:00;;;;;;;7.30;2.55;;;;;;;;;;5091689;28;20028;-36
2023/10/09 09:06:28;;;;;;;7.53;2.35;;;;;;;;;;5091642;28;20024;-36
2023/10/09 09:08:59;;;;;;;7.85;2.63;;;;;;;;;;5091588;28;20063;-36
2023/10/09 09:11:29;;;;;;;8.00;2.72;;;;;;;;;;5091570;28;20085;-36
2023/10/09 09:14:18;;;;;;;12.27;2.85;;;;;;;;;;5091573;28;20073;-37
2023/10/09 09:16:49;;;;;;;9.95;2.80;;;;;;;;;;5091522;28;20039;-36
2023/10/09 09:19:19;;;;;;;6.43;2.38;;;;;;;;;;5091333;28;20386;-33
2023/10/09 09:21:54;;;;;;;6.82;2.45;;;;;;;;;;5091393;28;20055;-38
2023/10/09 09:26:58;;;;;;;5.22;2.50;;;;;;;;;;5091509;28;20028;-33
2023/10/09 09:29:38;;;;;;;9.27;2.40;;;;;;;;;;5093810;28;20035;-36
2023/10/09 09:32:17;;;;;;;9.35;2.20;;;;;;;;;;5096720;28;20060;-34
2023/10/09 09:34:49;;;;;;;9.80;2.53;;;;;;;;;;5103919;28;20030;-36
2023/10/09 09:37:29;;;;;;;8.35;2.83;;;;;;;;;;5093982;28;20043;-36
2023/10/09 09:40:00;;;;;;;10.23;2.45;;;;;;;;;;5090959;28;20028;-33
2023/10/09 09:42:31;;;;;;;9.23;2.13;;;;;;;;;;5094630;28;20019;-38
2023/10/09 09:44:59;;;;;;;9.30;2.40;;;;;;;;;;5111474;28;20038;-36
2023/10/09 09:47:27;;;;;;;18.08;2.97;;;;;;;;;;5106258;28;20468;-36
2023/10/09 09:50:11;;;;;;;23.00;3.25;;;;;;;;;;5090154;28;20114;-36
2023/10/09 09:52:38;;;;;;;34.08;3.58;;;;;;;;;;5092108;28;20024;-40
2023/10/09 09:55:06;;;;;;;21.80;3.08;;;;;;;;;;5076805;28;20497;-40
2023/10/09 09:57:39;;;;;;;20.58;3.53;;;;;;;;;;5094997;28;20109;-38
2023/10/09 10:00:08;;;;;;;20.50;3.22;;;;;;;;;;5093307;28;20408;-38
2023/10/09 10:02:38;;;;;;;14.52;2.75;;;;;;;;;;5095015;28;20032;-37
2023/10/09 10:05:11;;;;;;;14.05;3.70;;;;;;;;;;5094413;28;20024;-37
2023/10/09 10:07:49;;;;;;;12.23;2.42;;;;;;;;;;5094913;28;20038;-38
2023/10/09 10:10:34;;;;;;;21.40;3.13;;;;;;;;;;5093110;28;20036;-38
2023/10/09 10:13:01;;;;;;;19.45;3.60;;;;;;;;;;5094516;28;20032;-39
2023/10/09 10:19:40;;;;;;;19.77;3.97;;;;;;;;;;5012447;28;20173;-38
2023/10/09 10:21:42;;;;;;;18.98;4.03;;;;;;;;;;4998276;28;20074;-37
2023/10/09 10:24:51;;;;;;;14.07;3.38;;;;;;;;;;5048213;28;20037;-39
2023/10/09 10:27:27;;;;;;;18.15;2.92;;;;;;;;;;5064577;28;20086;-37
2023/10/09 10:30:23;;;;;;;14.93;3.38;;;;;;;;;;5061771;28;20044;-39
2023/10/09 10:32:54;;;;;;;18.10;3.60;;;;;;;;;;5062590;28;20527;-40
2023/10/09 10:38:36;;;;;;;16.60;2.70;;;;;;;;;;5043595;28;20029;-36
2023/10/09 10:41:22;;;;;;;18.50;3.22;;;;;;;;;;5069260;28;20048;-37
2023/10/09 10:46:53;;;;;;;23.48;3.72;;;;;;;;;;5074292;28;20033;-35
2023/10/09 10:49:16;;;;;;;27.45;3.40;;;;;;;;;;5056161;28;20472;-40
2023/10/09 10:52:01;;;;;;;21.95;3.83;;;;;;;;;;5053886;28;20029;-35
2023/10/09 10:54:45;;;;;;;16.85;3.17;;;;;;;;;;5052411;28;20021;-35
2023/10/09 10:57:28;;;;;;;23.92;3.30;;;;;;;;;;5053915;28;20529;-35
2023/10/09 11:00:13;;;;;;;20.35;3.50;;;;;;;;;;5053647;28;20531;-35
2023/10/09 11:02:43;;;;;;;18.27;3.28;;;;;;;;;;5053509;28;20072;-35
2023/10/09 11:05:23;;;;;;;20.92;3.90;;;;;;;;;;5051581;28;20398;-35
2023/10/09 11:07:56;;;;;;;14.80;3.35;;;;;;;;;;5053469;28;20086;-35
2023/10/09 11:10:31;;;;;;;15.48;3.10;;;;;;;;;;5053332;28;20033;-32
2023/10/09 11:15:44;;;;;;;19.38;3.85;;;;;;;;;;5059917;28;20036;-40
2023/10/09 11:18:22;;;;;;;19.73;3.25;;;;;;;;;;5056257;28;20095;-40
2023/10/09 11:23:38;;;;;;;21.52;3.83;;;;;;;;;;5102757;28;20043;-38
2023/10/09 11:26:54;;;;;;;15.60;2.90;;;;;;;;;;5085109;28;20416;-39
2023/10/09 11:29:28;;;;;;;15.70;3.03;;;;;;;;;;5094801;28;20032;-37
2023/10/09 11:32:06;;;;;;;31.50;4.43;;;;;;;;;;5096127;28;20678;-38
2023/10/09 11:34:37;;;;;;;19.15;3.45;;;;;;;;;;5103808;28;20030;-45
2023/10/09 11:37:15;;;;;;;35.88;4.55;;;;;;;;;;5101336;28;20031;-44
2023/10/09 11:39:52;;;;;;;13.75;3.30;;;;;;;;;;5102125;28;20031;-43
2023/10/09 11:42:48;;;;;;;17.35;3.60;;;;;;;;;;5101845;28;20055;-45
2023/10/09 11:45:29;;;;;;;22.02;4.13;;;;;;;;;;5109844;28;20486;-45
2023/10/09 11:47:58;;;;;;;24.65;3.88;;;;;;;;;;5111639;28;20024;-47
2023/10/09 11:50:53;;;;;;;24.08;3.28;;;;;;;;;;5113392;28;20027;-45
2023/10/09 11:55:52;;;;;;;18.52;3.70;;;;;;;;;;5113599;28;20493;-42
2023/10/09 11:58:23;;;;;;;17.85;3.00;;;;;;;;;;5111234;28;20081;-41
2023/10/09 12:03:40;;;;;;;19.83;3.25;;;;;;;;;;5112593;28;20501;-41
2023/10/09 12:06:14;;;;;;;19.33;3.08;;;;;;;;;;5113051;28;20043;-39
2023/10/09 12:08:41;;;;;;;21.15;3.85;;;;;;;;;;5111296;28;20436;-45
2023/10/09 12:11:09;;;;;;;21.15;3.30;;;;;;;;;;5113010;28;20485;-45
2023/10/09 12:13:38;;;;;;;42.63;5.43;;;;;;;;;;5112679;28;20028;-45
2023/10/09 12:16:09;;;;;;;40.45;5.30;;;;;;;;;;5112333;28;20088;-45
2023/10/09 12:18:39;;;;;;;28.70;4.18;;;;;;;;;;5094373;28;20031;-45
2023/10/09 12:21:06;;;;;;;30.83;4.10;;;;;;;;;;5112662;28;20445;-45
2023/10/09 12:23:37;;;;;;;33.47;3.30;;;;;;;;;;5112840;28;20529;-45
2023/10/09 12:26:04;;;;;;;24.05;3.63;;;;;;;;;;5112753;28;20062;-45
2023/10/09 12:28:34;;;;;;;24.63;3.20;;;;;;;;;;5112660;28;20047;-45
2023/10/09 12:31:01;;;;;;;16.27;2.83;;;;;;;;;;5112681;28;20036;-45
2023/10/09 12:33:29;;;;;;;34.25;4.60;;;;;;;;;;5112674;28;20036;-45
2023/10/09 12:36:05;;;;;;;32.13;4.07;;;;;;;;;;5112664;28;20385;-46
2023/10/09 12:38:32;;;;;;;22.15;3.63;;;;;;;;;;5112462;28;20042;-45
2023/10/09 12:41:48;;;;;;;17.65;3.30;;;;;;;;;;5112440;28;20038;-46
2023/10/09 12:43:59;;;;;;;20.40;3.08;;;;;;;;;;5103980;28;20123;-45
2023/10/09 12:46:27;;;;;;;18.27;3.78;;;;;;;;;;5112457;28;20027;-45
2023/10/09 12:48:54;;;;;;;19.13;3.30;;;;;;;;;;5112192;28;20036;-44
2023/10/09 12:51:29;;;;;;;15.13;2.65;;;;;;;;;;5112338;28;20065;-44
2023/10/09 12:54:01;;;;;;;27.83;3.58;;;;;;;;;;5112245;28;20040;-44
2023/10/09 12:56:37;;;;;;;25.17;3.23;;;;;;;;;;5112247;28;20032;-44
2023/10/09 12:59:14;;;;;;;16.20;3.38;;;;;;;;;;5112052;28;20256;-44
2023/10/09 13:01:45;;;;;;;16.98;4.00;;;;;;;;;;5111971;28;20389;-44
2023/10/09 13:04:15;;;;;;;13.32;3.10;;;;;;;;;;5112228;28;20046;-45
2023/10/09 13:06:46;;;;;;;12.95;2.50;;;;;;;;;;5112038;28;20447;-44
2023/10/09 13:09:35;;;;;;;13.05;2.30;;;;;;;;;;5111892;28;20419;-44
2023/10/09 13:12:03;;;;;;;20.02;3.00;;;;;;;;;;5111992;28;20036;-44
2023/10/09 13:14:34;;;;;;;12.00;2.90;;;;;;;;;;5112141;28;20047;-45
2023/10/09 13:17:08;;;;;;;12.27;2.75;;;;;;;;;;5112057;28;20062;-44
2023/10/09 13:19:35;;;;;;;12.77;2.85;;;;;;;;;;5111851;28;20059;-44
2023/10/09 13:22:03;;;;;;;11.20;2.55;;;;;;;;;;5111717;28;20047;-44
2023/10/09 13:24:30;;;;;;;11.15;2.08;;;;;;;;;;5111852;28;20040;-44
2023/10/09 13:27:04;;;;;;;14.05;2.50;;;;;;;;;;5113657;28;20498;-44
2023/10/09 13:29:33;;;;;;;13.55;2.28;;;;;;;;;;5115962;28;20028;-45
2023/10/09 13:32:02;;;;;;;7.50;2.13;;;;;;;;;;5115960;28;20036;-44
2023/10/09 13:34:29;;;;;;;10.52;2.38;;;;;;;;;;5115993;28;20525;-44
2023/10/09 13:36:59;;;;;;;9.57;2.25;;;;;;;;;;5116011;28;20032;-44
2023/10/09 13:39:26;;;;;;;11.25;2.20;;;;;;;;;;5116098;28;20039;-44
2023/10/09 13:42:06;;;;;;;12.52;2.70;;;;;;;;;;5116003;28;20106;-44
2023/10/09 13:44:34;;;;;;;8.57;2.03;;;;;;;;;;5115840;28;20120;-45
2023/10/09 13:47:04;;;;;;;7.80;1.98;;;;;;;;;;5115914;28;20529;-44
2023/10/09 13:49:37;;;;;;;7.13;1.95;;;;;;;;;;5115664;28;20496;-44
2023/10/09 13:52:07;;;;;;;11.07;2.15;;;;;;;;;;5115701;28;20111;-44
2023/10/09 13:57:04;;;;;;;8.57;2.22;;;;;;;;;;5115632;28;20031;-44
2023/10/09 13:59:31;;;;;;;7.53;1.95;;;;;;;;;;5115400;28;20076;-44
2023/10/09 14:01:59;;;;;;;8.73;2.42;;;;;;;;;;5115564;28;20035;-44
2023/10/09 14:04:26;;;;;;;10.45;1.98;;;;;;;;;;5115417;28;20032;-44
2023/10/09 14:07:01;;;;;;;11.07;2.47;;;;;;;;;;5115519;28;20028;-44
2023/10/09 14:09:32;;;;;;;10.13;1.85;;;;;;;;;;5115241;28;20562;-45
2023/10/09 14:12:14;;;;;;;8.45;1.77;;;;;;;;;;5115429;28;20031;-44
2023/10/09 14:14:48;;;;;;;15.48;2.97;;;;;;;;;;5115555;28;20393;-43
2023/10/09 14:17:19;;;;;;;17.05;3.03;;;;;;;;;;5115324;28;20027;-44
2023/10/09 14:19:48;;;;;;;10.75;2.55;;;;;;;;;;5115032;28;20054;-44
2023/10/09 14:22:16;;;;;;;11.07;2.60;;;;;;;;;;5115048;28;20528;-44
2023/10/09 14:24:46;;;;;;;14.55;1.90;;;;;;;;;;5115059;28;20040;-44
2023/10/09 14:27:19;;;;;;;9.48;2.13;;;;;;;;;;5115089;28;20023;-45
2023/10/09 14:29:47;;;;;;;10.55;2.08;;;;;;;;;;5114994;28;20033;-44
2023/10/09 14:32:14;;;;;;;11.98;2.65;;;;;;;;;;5115092;28;20054;-44
2023/10/09 14:34:54;;;;;;;7.68;2.25;;;;;;;;;;5114969;28;20781;-44
2023/10/09 14:37:23;;;;;;;20.15;2.70;;;;;;;;;;5114732;28;20023;-44
2023/10/09 14:39:50;;;;;;;11.43;2.17;;;;;;;;;;5105577;28;20039;-44
2023/10/09 14:42:17;;;;;;;9.63;1.80;;;;;;;;;;5114832;28;20107;-44
2023/10/09 14:44:45;;;;;;;18.42;3.33;;;;;;;;;;5114799;28;20057;-44
2023/10/09 14:47:14;;;;;;;16.98;2.90;;;;;;;;;;5114754;28;20028;-45
2023/10/09 14:49:44;;;;;;;12.68;2.42;;;;;;;;;;5096624;28;20108;-44
2023/10/09 14:52:12;;;;;;;9.52;2.17;;;;;;;;;;5114647;28;20069;-44
2023/10/09 14:54:39;;;;;;;6.65;2.22;;;;;;;;;;5114631;28;20019;-45
2023/10/09 14:57:06;;;;;;;11.23;2.13;;;;;;;;;;5114735;28;20040;-45
2023/10/09 14:59:33;;;;;;;9.85;1.85;;;;;;;;;;5114393;28;20020;-44
2023/10/09 15:02:01;;;;;;;9.40;1.88;;;;;;;;;;5114424;28;20130;-46
2023/10/09 15:04:28;;;;;;;9.85;2.17;;;;;;;;;;5114433;28;20031;-44
2023/10/09 15:06:55;;;;;;;6.55;1.92;;;;;;;;;;5114348;28;20493;-44
2023/10/09 15:09:22;;;;;;;13.55;2.05;;;;;;;;;;5114355;28;20054;-44
2023/10/09 15:11:50;;;;;;;8.77;1.85;;;;;;;;;;5114428;28;20122;-45
2023/10/09 15:14:20;;;;;;;11.43;1.95;;;;;;;;;;5114260;28;20035;-44
2023/10/09 15:16:48;;;;;;;7.47;1.90;;;;;;;;;;5114150;28;20042;-44
2023/10/09 15:19:16;;;;;;;32.30;4.30;;;;;;;;;;5113988;28;20400;-45
2023/10/09 15:21:46;;;;;;;22.40;2.85;;;;;;;;;;5113744;28;20055;-45
2023/10/09 15:24:19;;;;;;;10.15;2.00;;;;;;;;;;5113926;28;20032;-44
2023/10/09 15:26:52;;;;;;;;;;;;;;;;;;5114318;28;20054;-44
2023/10/09 15:29:23;;;;;;;9.45;2.00;;;;;;;;;;5113791;28;19946;-44
2023/10/09 15:31:53;;;;;;;15.20;2.17;;;;;;;;;;5113753;28;20447;-44
2023/10/09 15:34:20;;;;;;;9.43;2.05;;;;;;;;;;5113743;28;20023;-44
2023/10/09 15:36:47;;;;;;;8.10;1.67;;;;;;;;;;5113768;28;20024;-44
2023/10/09 15:39:19;;;;;;;6.85;1.50;;;;;;;;;;5113711;28;20106;-44
2023/10/09 15:41:50;;;;;;;6.80;1.92;;;;;;;;;;5113447;28;20062;-45
2023/10/09 15:44:18;;;;;;;5.13;1.38;;;;;;;;;;5113508;28;20038;-45
2023/10/09 15:46:48;;;;;;;11.07;2.13;;;;;;;;;;5113592;28;20019;-44
2023/10/09 15:49:15;;;;;;;12.95;1.90;;;;;;;;;;5113263;28;20485;-44
2023/10/09 15:51:47;;;;;;;8.43;2.00;;;;;;;;;;5112611;28;20102;-44
2023/10/09 15:54:18;;;;;;;6.13;1.75;;;;;;;;;;5113320;28;20024;-44
2023/10/09 15:56:45;;;;;;;5.57;1.47;;;;;;;;;;5113332;28;20067;-44
2023/10/09 15:59:12;;;;;;;26.92;3.40;;;;;;;;;;5113259;28;20024;-46
2023/10/09 16:01:42;;;;;;;13.90;2.78;;;;;;;;;;5113205;28;20039;-44
2023/10/09 16:04:10;;;;;;;18.05;2.20;;;;;;;;;;5113293;28;20031;-44
2023/10/09 16:06:41;;;;;;;5.82;1.80;;;;;;;;;;5113219;28;20382;-44
2023/10/09 16:09:11;;;;;;;7.45;1.70;;;;;;;;;;5113024;28;20055;-44
2023/10/09 16:11:39;;;;;;;8.38;2.03;;;;;;;;;;5113088;28;20032;-44
2023/10/09 16:14:09;;;;;;;17.83;2.58;;;;;;;;;;5113118;28;20051;-44
2023/10/09 16:16:43;;;;;;;7.65;1.75;;;;;;;;;;5112909;28;20027;-45
2023/10/09 16:19:10;;;;;;;6.47;1.42;;;;;;;;;;5112754;28;20497;-44
2023/10/09 16:21:38;;;;;;;6.80;1.63;;;;;;;;;;5112705;28;20052;-44
2023/10/09 16:24:09;;;;;;;7.40;1.80;;;;;;;;;;5112881;28;20145;-44
2023/10/09 16:26:41;;;;;;;7.80;1.90;;;;;;;;;;5112750;28;20024;-44
2023/10/09 16:29:09;;;;;;;10.40;1.75;;;;;;;;;;5112571;28;20106;-44
2023/10/09 16:31:36;;;;;;;5.93;1.55;;;;;;;;;;5112716;28;20024;-44
2023/10/09 16:34:04;;;;;;;7.03;1.40;;;;;;;;;;5112666;28;20073;-44
2023/10/09 16:36:37;;;;;;;6.05;1.38;;;;;;;;;;5112495;28;20028;-44
2023/10/09 16:39:04;;;;;;;5.97;1.50;;;;;;;;;;5112498;28;20027;-44
2023/10/09 16:41:37;;;;;;;6.63;1.63;;;;;;;;;;5112529;28;20027;-44
2023/10/09 16:44:04;;;;;;;;;;;;;;;;;;5112800;28;20035;-44
2023/10/09 16:46:31;;;;;;;3.80;0.98;;;;;;;;;;5112408;28;20408;-44
2023/10/09 16:49:04;;;;;;;4.53;1.27;;;;;;;;;;5112657;28;20034;-44
2023/10/09 16:51:30;;;;;;;;;;;;;;;;;;5112702;28;20481;-44
2023/10/09 16:53:58;;;;;;;5.47;1.33;;;;;;;;;;5112301;28;20291;-44
2023/10/09 16:56:32;;;;;;;5.90;1.13;;;;;;;;;;5112214;28;20039;-44
2023/10/09 16:59:00;;;;;;;4.45;1.27;;;;;;;;;;5112422;28;20362;-43
2023/10/09 17:01:27;;;;;;;4.15;1.30;;;;;;;;;;5111730;28;20142;-44
2023/10/09 17:04:03;;;;;;;8.43;1.40;;;;;;;;;;5112147;28;20385;-44
2023/10/09 17:06:31;;;;;;;4.88;1.20;;;;;;;;;;5112033;28;20069;-44
2023/10/09 17:09:00;;;;;;;6.43;1.50;;;;;;;;;;5112129;28;20088;-43
2023/10/09 17:11:27;;;;;;;6.57;1.40;;;;;;;;;;5111965;28;20035;-44
2023/10/09 17:13:57;;;;;;;5.78;1.40;;;;;;;;;;5112113;28;20481;-43
2023/10/09 17:16:27;;;;;;;6.60;1.30;;;;;;;;;;5111889;28;20060;-44
2023/10/09 17:18:54;;;;;;;3.28;1.10;;;;;;;;;;5111758;28;20036;-44
2023/10/09 17:21:23;;;;;;;5.07;1.15;;;;;;;;;;5111711;28;20438;-44
2023/10/09 17:23:54;;;;;;;4.90;1.48;;;;;;;;;;5111811;28;20075;-44
2023/10/09 17:26:25;;;;;;;5.78;1.30;;;;;;;;;;5112057;28;20569;-44
2023/10/09 17:28:52;;;;;;;7.97;1.50;;;;;;;;;;5111875;28;20561;-44
2023/10/09 17:31:25;;;;;;;7.15;1.30;;;;;;;;;;5111994;28;20107;-45
2023/10/09 17:33:57;;;;;;;8.18;1.30;;;;;;;;;;5111782;28;20089;-42
2023/10/09 17:36:26;;;;;;;4.82;1.00;;;;;;;;;;5111782;28;20042;-44
2023/10/09 17:38:53;;;;;;;3.50;1.10;;;;;;;;;;5111599;28;20028;-45